Time;durP1;ratioP1;P1;durP2;ratioP2;P2;SDS_P1;SDS_P2;PMS_P1;PMS_P2;Temp;Humidity;BMP_temperature;BMP_pressure;BME280_temperature;BME280_humidity;BME280_pressure;Samples;Min_cycle;Max_cycle;Signal;HPM_P1;HPM_P2
2022/01/14 00:03:39;;;;;;;36.27;16.30;;;3.40;99.90;;;;;;8491382;27;20177;-65
2022/01/14 00:07:40;;;;;;;31.00;16.50;;;3.30;99.90;;;;;;8483899;27;20255;-63
2022/01/14 00:11:52;;;;;;;33.83;16.47;;;3.30;99.90;;;;;;8488430;27;20211;-64
2022/01/14 00:15:53;;;;;;;32.73;15.47;;;3.30;99.90;;;;;;8484327;27;20203;-64
2022/01/14 00:19:54;;;;;;;34.60;16.73;;;3.30;99.90;;;;;;8483402;27;20289;-63
2022/01/14 00:24:07;;;;;;;33.20;16.03;;;3.30;99.90;;;;;;8472702;27;20178;-63
2022/01/14 00:32:56;;;;;;;29.53;15.47;;;3.30;99.90;;;;;;8460738;27;20202;-63
2022/01/14 00:36:59;;;;;;;30.67;16.93;;;3.30;99.90;;;;;;8479276;27;20334;-65
2022/01/14 00:41:00;;;;;;;35.47;18.33;;;3.30;99.90;;;;;;8482077;27;20225;-63
2022/01/14 00:45:02;;;;;;;31.20;16.50;;;3.30;99.90;;;;;;8490611;27;20189;-65
2022/01/14 00:49:03;;;;;;;34.10;17.60;;;3.20;99.90;;;;;;8490184;27;20187;-65
2022/01/14 00:53:04;;;;;;;36.97;17.93;;;3.20;99.90;;;;;;8487090;27;20516;-63
2022/01/14 01:01:08;;;;;;;36.30;16.80;;;3.20;99.90;;;;;;8484067;27;20206;-65
2022/01/14 01:05:12;;;;;;;35.37;16.70;;;3.20;99.90;;;;;;8475692;27;20189;-63
2022/01/14 01:09:14;;;;;;;28.20;16.53;;;3.10;99.90;;;;;;8487382;27;20623;-63
2022/01/14 01:13:27;;;;;;;35.47;16.93;;;3.10;99.90;;;;;;8464923;27;20188;-65
2022/01/14 01:17:28;;;;;;;29.00;14.93;;;3.10;99.90;;;;;;8476092;27;20294;-64
2022/01/14 01:21:28;;;;;;;32.40;16.47;;;3.10;99.90;;;;;;8469265;27;20217;-63
2022/01/14 01:25:37;;;;;;;35.20;16.33;;;3.10;99.90;;;;;;8480895;27;20203;-63
2022/01/14 01:33:38;;;;;;;36.10;17.00;;;3.00;99.90;;;;;;8473932;27;20179;-64
2022/01/14 01:37:39;;;;;;;38.33;17.47;;;3.00;99.90;;;;;;8473314;27;20278;-63
2022/01/14 01:41:43;;;;;;;32.03;14.93;;;3.00;99.90;;;;;;8485292;27;20413;-64
2022/01/14 01:45:49;;;;;;;35.30;16.67;;;3.00;99.90;;;;;;8488365;27;20171;-63
2022/01/14 01:49:50;;;;;;;38.30;16.57;;;3.00;99.90;;;;;;8480369;27;20179;-63
2022/01/14 01:53:51;;;;;;;35.10;16.33;;;2.90;99.90;;;;;;8485504;27;20239;-65
2022/01/14 01:57:53;;;;;;;32.97;15.53;;;2.90;99.90;;;;;;8473228;27;20589;-65
2022/01/14 02:01:59;;;;;;;31.97;16.37;;;2.90;99.90;;;;;;8487517;27;20214;-65
2022/01/14 02:06:01;;;;;;;36.40;17.47;;;2.90;99.90;;;;;;8480909;27;20190;-65
2022/01/14 02:10:03;;;;;;;29.87;15.43;;;2.90;99.90;;;;;;8467492;27;20179;-64
2022/01/14 02:14:13;;;;;;;29.23;14.33;;;2.90;99.90;;;;;;8484008;27;20271;-64
2022/01/14 02:18:33;;;;;;;36.40;16.17;;;2.80;99.90;;;;;;8485922;27;20239;-63
2022/01/14 02:22:43;;;;;;;31.93;15.10;;;2.80;99.90;;;;;;8484222;27;20179;-63
2022/01/14 02:26:54;;;;;;;35.87;17.20;;;2.80;99.90;;;;;;8483280;27;20179;-64
2022/01/14 02:30:55;;;;;;;32.53;15.90;;;2.80;99.90;;;;;;8479333;27;20194;-63
2022/01/14 02:34:56;;;;;;;30.57;16.07;;;2.80;99.90;;;;;;8461209;27;20180;-64
2022/01/14 02:38:56;;;;;;;32.37;16.63;;;2.80;99.90;;;;;;8477144;27;20195;-68
2022/01/14 02:43:00;;;;;;;29.93;14.60;;;2.80;99.90;;;;;;8478672;27;20604;-63
2022/01/14 02:47:05;;;;;;;31.63;15.77;;;2.70;99.90;;;;;;8483588;27;20183;-64
2022/01/14 02:51:14;;;;;;;28.90;15.57;;;2.70;99.90;;;;;;8476195;27;20191;-63
2022/01/14 02:55:18;;;;;;;30.97;15.10;;;2.70;99.90;;;;;;8485960;27;20223;-64
2022/01/14 02:59:20;;;;;;;31.90;14.73;;;2.70;99.90;;;;;;8465468;27;20192;-63
2022/01/14 03:03:23;;;;;;;29.50;13.93;;;2.70;99.90;;;;;;8476889;27;20179;-65
2022/01/14 03:07:24;;;;;;;31.23;15.37;;;2.70;99.90;;;;;;8474715;27;20192;-65
2022/01/14 03:11:34;;;;;;;30.93;13.93;;;2.70;99.90;;;;;;8485363;27;20215;-64
2022/01/14 03:15:35;;;;;;;28.00;14.80;;;2.70;99.90;;;;;;8473047;27;20234;-63
2022/01/14 03:19:36;;;;;;;31.33;15.97;;;2.70;99.90;;;;;;8484719;27;20211;-65
2022/01/14 03:23:48;;;;;;;31.13;14.70;;;2.70;99.90;;;;;;8459557;27;20259;-63
2022/01/14 03:27:49;;;;;;;32.30;15.93;;;2.70;99.90;;;;;;8481974;27;20271;-63
2022/01/14 03:31:50;;;;;;;29.53;15.20;;;2.70;99.90;;;;;;8473466;27;20183;-64
2022/01/14 03:35:51;;;;;;;35.77;17.00;;;2.70;99.90;;;;;;8483692;27;20624;-68
2022/01/14 03:39:52;;;;;;;34.63;17.33;;;2.70;99.90;;;;;;8468842;27;20278;-67
2022/01/14 03:43:53;;;;;;;33.03;15.17;;;2.60;99.90;;;;;;8455054;28;20175;-65
2022/01/14 03:47:54;;;;;;;37.00;17.23;;;2.60;99.90;;;;;;8456205;28;20575;-63
2022/01/14 03:51:55;;;;;;;38.33;18.07;;;2.60;99.90;;;;;;8466504;28;20275;-65
2022/01/14 03:55:56;;;;;;;37.23;17.00;;;2.60;99.90;;;;;;8450908;28;20407;-64
2022/01/14 03:59:56;;;;;;;33.53;16.37;;;2.60;99.90;;;;;;8466233;28;20351;-65
2022/01/14 04:03:57;;;;;;;31.13;15.37;;;2.60;99.90;;;;;;8460637;28;20176;-67
2022/01/14 04:07:58;;;;;;;36.53;16.47;;;2.60;99.90;;;;;;8475744;27;20256;-65
2022/01/14 04:12:01;;;;;;;31.13;14.70;;;2.70;99.90;;;;;;8475982;27;20258;-64
2022/01/14 04:16:02;;;;;;;31.67;15.33;;;2.70;99.90;;;;;;8486067;28;20255;-64
2022/01/14 04:20:03;;;;;;;32.30;16.13;;;2.70;99.90;;;;;;8469033;28;20220;-63
2022/01/14 04:24:04;;;;;;;34.43;15.57;;;2.60;99.90;;;;;;8486652;27;20184;-64
2022/01/14 04:28:07;;;;;;;31.57;14.87;;;2.60;99.90;;;;;;8471923;27;20180;-65
2022/01/14 04:32:08;;;;;;;36.20;16.73;;;2.70;99.90;;;;;;8483227;27;20190;-64
2022/01/14 04:36:09;;;;;;;34.17;15.87;;;2.60;99.90;;;;;;8476697;27;20192;-63
2022/01/14 04:40:13;;;;;;;35.97;16.53;;;2.60;99.90;;;;;;8486260;27;20203;-65
2022/01/14 04:44:13;;;;;;;34.60;16.40;;;2.60;99.90;;;;;;8480166;27;20190;-65
2022/01/14 04:48:14;;;;;;;33.60;16.07;;;2.60;99.90;;;;;;8490615;27;20589;-67
2022/01/14 04:52:15;;;;;;;32.03;15.30;;;2.60;99.90;;;;;;8478824;27;20179;-65
2022/01/14 04:56:16;;;;;;;37.07;17.17;;;2.60;99.90;;;;;;8474484;27;20224;-64
2022/01/14 05:00:20;;;;;;;33.47;15.70;;;2.60;99.90;;;;;;8478315;27;20203;-65
2022/01/14 05:04:21;;;;;;;30.97;15.63;;;2.60;99.90;;;;;;8481257;27;20195;-65
2022/01/14 05:08:30;;;;;;;30.53;15.37;;;2.70;99.90;;;;;;8476393;27;20187;-65
2022/01/14 05:12:36;;;;;;;29.77;16.53;;;2.60;99.90;;;;;;8472055;27;20243;-65
2022/01/14 05:16:37;;;;;;;34.53;17.23;;;2.60;99.90;;;;;;8481036;27;20295;-64
2022/01/14 05:20:38;;;;;;;27.93;14.47;;;2.60;99.90;;;;;;8471333;27;20213;-65
2022/01/14 05:24:39;;;;;;;30.10;14.93;;;2.60;99.90;;;;;;8465700;27;20199;-67
2022/01/14 05:28:39;;;;;;;33.27;15.03;;;2.60;99.90;;;;;;8477600;27;20188;-64
2022/01/14 05:32:53;;;;;;;31.77;16.53;;;2.60;99.90;;;;;;8479720;27;20171;-64
2022/01/14 05:36:53;;;;;;;33.73;15.63;;;2.60;99.90;;;;;;8473319;27;20184;-64
2022/01/14 05:40:54;;;;;;;32.70;14.53;;;2.60;99.90;;;;;;8479314;27;20287;-65
2022/01/14 05:44:55;;;;;;;30.37;14.50;;;2.60;99.90;;;;;;8489052;27;20184;-64
2022/01/14 05:48:56;;;;;;;29.67;14.73;;;2.60;99.90;;;;;;8482062;27;20183;-64
2022/01/14 05:52:56;;;;;;;29.10;14.20;;;2.60;99.90;;;;;;8488786;27;20183;-65
2022/01/14 05:56:57;;;;;;;28.47;14.30;;;2.60;99.90;;;;;;8487297;27;20195;-64
2022/01/14 06:00:58;;;;;;;27.23;14.17;;;2.60;99.90;;;;;;8465536;27;20211;-68
2022/01/14 06:04:59;;;;;;;30.33;15.43;;;2.60;99.90;;;;;;8478054;27;20180;-66
2022/01/14 06:09:00;;;;;;;29.43;14.83;;;2.60;99.90;;;;;;8471310;27;20213;-65
2022/01/14 06:13:01;;;;;;;27.43;14.47;;;2.70;99.90;;;;;;8465204;27;20183;-66
2022/01/14 06:17:02;;;;;;;28.00;14.63;;;2.70;99.90;;;;;;8455553;28;20211;-64
2022/01/14 06:21:03;;;;;;;29.70;13.20;;;2.70;99.90;;;;;;8484837;27;20206;-64
2022/01/14 06:25:04;;;;;;;28.77;14.53;;;2.70;99.90;;;;;;8471904;27;20235;-63
2022/01/14 06:29:05;;;;;;;26.90;13.97;;;2.70;99.90;;;;;;8486641;27;20183;-66
2022/01/14 06:33:06;;;;;;;32.40;14.00;;;2.70;99.90;;;;;;8478889;27;20616;-64
2022/01/14 06:37:07;;;;;;;31.13;14.17;;;2.70;99.90;;;;;;8471527;27;20212;-70
2022/01/14 06:41:08;;;;;;;30.07;14.03;;;2.80;99.90;;;;;;8477768;27;20217;-65
2022/01/14 06:45:09;;;;;;;32.93;15.13;;;2.80;99.90;;;;;;8484424;27;20201;-64
2022/01/14 06:49:10;;;;;;;34.03;15.57;;;2.70;99.90;;;;;;8466961;27;20181;-65
2022/01/14 06:53:10;;;;;;;29.13;14.83;;;2.70;99.90;;;;;;8475040;27;20171;-65
2022/01/14 06:57:11;;;;;;;33.57;15.47;;;2.80;99.90;;;;;;8480550;27;20207;-64
2022/01/14 07:01:13;;;;;;;26.57;13.13;;;2.80;99.90;;;;;;8480695;27;20218;-66
2022/01/14 07:05:14;;;;;;;28.27;14.50;;;2.80;99.90;;;;;;8476246;27;20206;-64
2022/01/14 07:09:15;;;;;;;29.77;15.00;;;2.80;99.90;;;;;;8462386;27;20269;-66
2022/01/14 07:13:15;;;;;;;30.73;14.03;;;2.80;99.90;;;;;;8467665;27;20194;-66
2022/01/14 07:17:16;;;;;;;26.00;13.63;;;2.90;99.90;;;;;;8469734;27;20214;-67
2022/01/14 07:21:17;;;;;;;27.60;13.57;;;2.80;99.90;;;;;;8468720;27;20312;-66
2022/01/14 07:25:18;;;;;;;25.80;12.77;;;2.90;99.90;;;;;;8476223;27;20183;-68
2022/01/14 07:29:19;;;;;;;27.33;13.97;;;2.90;99.90;;;;;;8468244;27;20227;-68
2022/01/14 07:33:20;;;;;;;26.27;13.30;;;2.90;99.90;;;;;;8479263;27;20212;-68
2022/01/14 07:37:21;;;;;;;27.40;13.20;;;2.80;99.90;;;;;;8483069;28;20232;-66
2022/01/14 07:41:22;;;;;;;26.73;13.47;;;2.90;99.90;;;;;;8474932;28;20215;-66
2022/01/14 07:45:23;;;;;;;28.10;12.20;;;2.90;99.90;;;;;;8484986;27;20188;-67
2022/01/14 07:49:24;;;;;;;26.70;13.30;;;2.90;99.90;;;;;;8485982;27;20186;-67
2022/01/14 07:53:25;;;;;;;25.90;13.00;;;2.90;99.90;;;;;;8475972;28;20183;-68
2022/01/14 07:57:26;;;;;;;27.20;11.90;;;2.90;99.90;;;;;;8480569;27;20195;-67
2022/01/14 08:01:27;;;;;;;23.67;11.13;;;3.00;99.90;;;;;;8480247;27;20207;-67
2022/01/14 08:05:28;;;;;;;21.53;11.23;;;3.10;99.90;;;;;;8467319;27;20197;-68
2022/01/14 08:09:32;;;;;;;21.83;10.63;;;3.10;99.90;;;;;;8491719;27;20184;-68
2022/01/14 08:13:34;;;;;;;21.27;10.27;;;3.10;99.90;;;;;;8487964;27;20175;-68
2022/01/14 08:17:35;;;;;;;16.93;10.13;;;3.10;99.90;;;;;;8493557;27;20210;-67
2022/01/14 08:21:35;;;;;;;22.30;10.53;;;3.10;99.90;;;;;;8487892;27;20262;-67
2022/01/14 08:25:36;;;;;;;21.73;11.47;;;3.10;99.90;;;;;;8476879;27;20338;-68
2022/01/14 08:29:41;;;;;;;20.33;11.67;;;3.10;99.90;;;;;;8482369;27;20256;-68
2022/01/14 08:33:42;;;;;;;26.40;12.97;;;3.10;99.90;;;;;;8489282;27;20189;-67
2022/01/14 08:37:43;;;;;;;23.07;12.93;;;3.00;99.90;;;;;;8479134;27;20213;-68
2022/01/14 08:41:44;;;;;;;21.63;10.67;;;3.00;99.90;;;;;;8479453;27;20208;-67
2022/01/14 08:45:46;;;;;;;24.37;11.23;;;3.10;99.90;;;;;;8481631;27;20183;-66
2022/01/14 08:49:47;;;;;;;23.03;11.70;;;3.10;99.90;;;;;;8481900;27;20188;-67
2022/01/14 08:53:47;;;;;;;22.63;11.50;;;3.10;99.90;;;;;;8465013;27;20223;-68
2022/01/14 08:57:49;;;;;;;22.87;11.17;;;3.10;99.90;;;;;;8461550;27;20279;-67
2022/01/14 09:01:49;;;;;;;19.23;10.57;;;3.20;99.90;;;;;;8473660;27;20264;-67
2022/01/14 09:05:50;;;;;;;19.93;11.13;;;3.10;99.90;;;;;;8465651;27;20266;-67
2022/01/14 09:09:54;;;;;;;21.40;11.47;;;3.10;99.90;;;;;;8473362;27;20179;-67
2022/01/14 09:13:55;;;;;;;22.83;12.20;;;3.10;99.90;;;;;;8458832;27;20188;-67
2022/01/14 09:17:55;;;;;;;25.63;12.03;;;3.10;99.90;;;;;;8460200;27;20227;-67
2022/01/14 09:21:56;;;;;;;21.10;11.10;;;3.20;99.90;;;;;;8491120;27;20206;-67
2022/01/14 09:25:57;;;;;;;23.67;12.10;;;3.10;99.90;;;;;;8473750;27;20236;-67
2022/01/14 09:29:59;;;;;;;22.87;11.63;;;3.10;99.90;;;;;;8478291;27;20274;-67
2022/01/14 09:34:00;;;;;;;23.40;12.73;;;3.10;99.90;;;;;;8470673;27;20207;-66
2022/01/14 09:38:01;;;;;;;23.13;11.70;;;3.10;99.90;;;;;;8483792;27;20175;-67
2022/01/14 09:42:02;;;;;;;27.57;13.53;;;3.00;99.90;;;;;;8479367;27;20211;-66
2022/01/14 09:46:08;;;;;;;26.23;12.90;;;3.00;99.90;;;;;;8482007;27;20175;-67
2022/01/14 09:50:09;;;;;;;24.10;12.33;;;2.90;99.90;;;;;;8478525;27;20183;-67
2022/01/14 09:54:11;;;;;;;24.37;14.07;;;2.90;99.90;;;;;;8476167;27;20194;-66
2022/01/14 09:58:12;;;;;;;28.73;14.50;;;2.90;99.90;;;;;;8485092;27;20202;-67
2022/01/14 10:02:38;;;;;;;34.83;15.10;;;2.90;99.90;;;;;;8472135;27;20199;-66
2022/01/14 10:06:53;;;;;;;32.27;14.97;;;2.80;99.90;;;;;;8474810;27;20183;-66
2022/01/14 10:11:04;;;;;;;28.27;14.73;;;2.70;99.90;;;;;;8477508;27;20223;-67
2022/01/14 10:15:09;;;;;;;33.87;16.50;;;2.60;99.90;;;;;;8479518;27;20180;-67
2022/01/14 10:19:45;;;;;;;33.03;15.60;;;2.60;99.90;;;;;;8474048;27;20283;-66
2022/01/14 10:23:51;;;;;;;31.90;16.90;;;2.50;99.90;;;;;;8406574;27;20199;-66
2022/01/14 10:27:54;;;;;;;32.10;17.23;;;2.60;99.90;;;;;;8452958;28;20298;-68
2022/01/14 10:31:56;;;;;;;31.10;15.50;;;2.60;99.90;;;;;;8477283;27;20189;-66
2022/01/14 10:35:57;;;;;;;29.77;16.03;;;2.70;99.90;;;;;;8486351;27;20178;-66
2022/01/14 10:39:58;;;;;;;31.80;15.63;;;2.70;99.90;;;;;;8475703;27;20306;-66
2022/01/14 10:43:58;;;;;;;34.43;16.83;;;2.60;99.90;;;;;;8472837;27;20213;-66
2022/01/14 10:48:05;;;;;;;30.33;16.60;;;2.60;99.90;;;;;;8466740;27;20298;-67
2022/01/14 10:52:18;;;;;;;35.50;17.30;;;2.50;99.90;;;;;;8480716;27;20191;-67
2022/01/14 10:56:22;;;;;;;32.77;14.37;;;2.60;99.90;;;;;;8462867;27;20198;-66
2022/01/14 11:00:24;;;;;;;33.27;15.93;;;2.60;99.90;;;;;;8466818;27;20203;-68
2022/01/14 11:04:24;;;;;;;31.33;15.77;;;2.60;99.90;;;;;;8463337;27;20265;-67
2022/01/14 11:08:35;;;;;;;28.33;15.30;;;2.60;99.90;;;;;;8473088;27;20179;-67
2022/01/14 11:12:37;;;;;;;24.40;13.67;;;2.60;99.90;;;;;;8479911;27;20236;-67
2022/01/14 11:16:38;;;;;;;26.90;13.73;;;2.60;99.90;;;;;;8484838;27;20298;-67
2022/01/14 11:24:59;;;;;;;26.17;14.80;;;2.60;99.90;;;;;;8473874;27;20386;-67
2022/01/14 11:29:21;;;;;;;25.00;13.07;;;2.70;99.90;;;;;;8464067;27;20186;-66
2022/01/14 11:33:41;;;;;;;24.40;12.60;;;2.70;99.90;;;;;;8460346;28;20232;-67
2022/01/14 11:37:41;;;;;;;23.23;11.97;;;2.70;99.90;;;;;;8477524;27;20269;-66
2022/01/14 11:41:54;;;;;;;26.40;13.57;;;2.80;99.90;;;;;;8483021;27;20208;-66
2022/01/14 11:45:55;;;;;;;25.40;13.90;;;2.80;99.90;;;;;;8478919;27;20183;-66
2022/01/14 11:49:58;;;;;;;24.37;13.97;;;2.80;99.90;;;;;;8479732;27;20222;-66
2022/01/14 11:54:07;;;;;;;26.37;14.60;;;2.80;99.90;;;;;;8477776;27;20175;-65
2022/01/14 11:58:20;;;;;;;25.57;13.30;;;2.80;99.90;;;;;;8489461;27;20199;-67
2022/01/14 12:02:27;;;;;;;22.40;12.57;;;2.90;99.90;;;;;;8467968;27;20212;-65
2022/01/14 12:06:50;;;;;;;26.30;13.10;;;2.90;99.90;;;;;;8473292;27;20184;-67
2022/01/14 12:10:53;;;;;;;26.83;13.07;;;2.90;99.90;;;;;;8478358;27;20232;-67
2022/01/14 12:14:58;;;;;;;28.00;13.17;;;2.90;99.90;;;;;;8494587;27;20224;-68
2022/01/14 12:19:02;;;;;;;26.17;13.17;;;2.80;99.90;;;;;;8478715;27;20219;-67
2022/01/14 12:23:12;;;;;;;23.73;13.13;;;2.80;99.90;;;;;;8474623;27;20183;-67
2022/01/14 12:27:21;;;;;;;21.47;12.17;;;2.90;99.90;;;;;;8480686;27;20194;-67
2022/01/14 12:31:21;;;;;;;22.17;12.53;;;2.90;99.90;;;;;;8471769;27;20211;-67
2022/01/14 12:35:28;;;;;;;22.47;13.70;;;2.90;99.90;;;;;;8491735;27;20171;-67
2022/01/14 12:39:29;;;;;;;26.13;12.90;;;2.90;99.90;;;;;;8488413;27;20214;-68
2022/01/14 12:43:31;;;;;;;23.60;13.37;;;2.90;99.90;;;;;;8482787;27;20173;-66
2022/01/14 12:47:34;;;;;;;25.60;14.07;;;2.90;99.90;;;;;;8484266;27;20527;-71
2022/01/14 12:51:36;;;;;;;26.80;13.67;;;2.90;99.90;;;;;;8480336;27;20194;-67
2022/01/14 12:55:37;;;;;;;29.90;13.13;;;2.90;99.90;;;;;;8486369;27;20628;-66
2022/01/14 12:59:40;;;;;;;25.80;12.47;;;3.00;99.90;;;;;;8466495;27;20207;-65
2022/01/14 13:03:41;;;;;;;27.53;13.00;;;3.10;99.90;;;;;;8480874;27;20172;-68
2022/01/14 13:07:44;;;;;;;30.17;14.00;;;3.00;99.90;;;;;;8469140;27;20176;-66
2022/01/14 13:12:05;;;;;;;25.27;13.57;;;3.10;99.90;;;;;;8480469;27;20191;-66
2022/01/14 13:16:06;;;;;;;28.37;13.33;;;3.10;99.90;;;;;;8481374;27;20256;-67
2022/01/14 13:20:14;;;;;;;26.13;13.90;;;3.00;99.90;;;;;;8487970;27;20211;-68
2022/01/14 13:24:27;;;;;;;25.57;13.10;;;3.00;99.90;;;;;;8489860;27;20288;-66
2022/01/14 13:28:28;;;;;;;27.40;14.20;;;3.00;99.90;;;;;;8476868;27;20184;-66
2022/01/14 13:32:35;;;;;;;26.10;14.77;;;3.00;99.90;;;;;;8489069;27;20182;-66
2022/01/14 13:36:36;;;;;;;29.30;14.13;;;3.00;99.90;;;;;;8480820;27;20199;-66
2022/01/14 13:40:54;;;;;;;27.23;14.90;;;3.00;99.90;;;;;;8477496;27;20214;-67
2022/01/14 13:45:24;;;;;;;31.73;14.63;;;3.00;99.90;;;;;;8455683;28;20184;-68
2022/01/14 13:49:25;;;;;;;29.97;14.63;;;3.00;99.90;;;;;;8470203;27;20191;-67
2022/01/14 13:53:36;;;;;;;30.20;14.53;;;3.00;99.90;;;;;;8457649;27;20179;-67
2022/01/14 13:57:37;;;;;;;26.07;14.57;;;3.00;99.90;;;;;;8460462;27;20291;-67
2022/01/14 14:01:52;;;;;;;29.73;13.60;;;3.10;99.90;;;;;;8463048;27;20211;-66
2022/01/14 14:05:58;;;;;;;34.03;16.63;;;3.10;99.90;;;;;;8469103;27;20183;-68
2022/01/14 14:10:21;;;;;;;28.47;13.87;;;3.10;99.90;;;;;;8481599;27;20275;-68
2022/01/14 14:18:42;;;;;;;28.67;15.70;;;3.20;99.90;;;;;;8465996;27;20225;-68
2022/01/14 14:22:43;;;;;;;29.00;14.73;;;3.20;99.90;;;;;;8487466;27;20430;-67
2022/01/14 14:26:43;;;;;;;30.33;14.97;;;3.30;99.90;;;;;;8488695;27;20179;-69
2022/01/14 14:30:50;;;;;;;33.70;14.87;;;3.30;99.90;;;;;;8480481;27;20175;-66
2022/01/14 14:34:51;;;;;;;25.77;13.33;;;3.30;99.90;;;;;;8461735;27;20178;-67
2022/01/14 14:38:53;;;;;;;25.83;12.47;;;3.40;99.90;;;;;;8478531;27;20205;-69
2022/01/14 14:42:55;;;;;;;25.83;12.67;;;3.40;99.90;;;;;;8478867;27;20175;-68
2022/01/14 14:46:55;;;;;;;27.30;14.97;;;3.40;99.90;;;;;;8487090;27;20207;-68
2022/01/14 14:50:56;;;;;;;27.07;13.57;;;3.50;99.90;;;;;;8469375;27;20187;-67
2022/01/14 14:54:57;;;;;;;28.27;13.50;;;3.50;99.90;;;;;;8453115;28;20492;-67
2022/01/14 14:58:58;;;;;;;22.23;13.33;;;3.50;99.90;;;;;;8459739;27;20195;-67
2022/01/14 15:03:02;;;;;;;24.00;13.00;;;3.50;99.90;;;;;;8469249;27;20180;-67
2022/01/14 15:07:03;;;;;;;23.00;12.90;;;3.50;99.90;;;;;;8476068;27;20183;-69
2022/01/14 15:11:04;;;;;;;23.43;13.07;;;3.60;99.90;;;;;;8476502;27;20191;-68
2022/01/14 15:15:08;;;;;;;21.53;12.33;;;3.60;99.90;;;;;;8453713;28;20215;-67
2022/01/14 15:19:09;;;;;;;23.00;11.90;;;3.60;99.90;;;;;;8469005;27;20201;-67
2022/01/14 15:23:11;;;;;;;24.20;14.03;;;3.60;99.90;;;;;;8472746;27;20183;-66
2022/01/14 15:27:12;;;;;;;25.57;15.10;;;3.70;99.90;;;;;;8480893;27;20194;-67
2022/01/14 15:31:13;;;;;;;28.87;13.40;;;3.70;99.90;;;;;;8473109;27;20186;-66
2022/01/14 15:35:15;;;;;;;23.93;12.33;;;3.70;99.90;;;;;;8477514;27;20224;-67
2022/01/14 15:39:17;;;;;;;19.80;11.87;;;3.70;99.90;;;;;;8474374;28;20206;-67
2022/01/14 15:43:18;;;;;;;20.83;12.17;;;3.70;99.90;;;;;;8459685;27;20178;-67
2022/01/14 15:47:19;;;;;;;20.67;12.60;;;3.70;99.90;;;;;;8450625;28;20183;-66
2022/01/14 15:51:24;;;;;;;22.50;13.03;;;3.70;99.90;;;;;;8474939;27;20183;-65
2022/01/14 15:55:25;;;;;;;27.63;14.27;;;3.70;99.90;;;;;;8487335;27;20195;-64
2022/01/14 15:59:26;;;;;;;25.07;13.27;;;3.70;99.90;;;;;;8483383;27;20294;-65
2022/01/14 16:03:27;;;;;;;23.57;12.73;;;3.70;99.90;;;;;;8476247;28;20227;-64
2022/01/14 16:07:28;;;;;;;21.67;12.73;;;3.70;99.90;;;;;;8479560;27;20179;-65
2022/01/14 16:11:29;;;;;;;23.03;13.10;;;3.70;99.90;;;;;;8483989;28;20330;-64
2022/01/14 16:15:30;;;;;;;26.83;13.70;;;3.70;99.90;;;;;;8485204;27;20230;-64
2022/01/14 16:19:31;;;;;;;25.97;14.83;;;3.80;99.90;;;;;;8484290;27;20221;-65
2022/01/14 16:23:32;;;;;;;27.43;15.17;;;3.80;99.90;;;;;;8485291;27;20272;-67
2022/01/14 16:27:33;;;;;;;25.83;14.53;;;3.80;99.90;;;;;;8481614;27;20195;-65
2022/01/14 16:31:33;;;;;;;26.37;13.80;;;3.80;99.90;;;;;;8480592;27;20432;-66
2022/01/14 16:35:34;;;;;;;22.53;13.27;;;3.80;99.90;;;;;;8468762;27;20281;-66
2022/01/14 16:39:35;;;;;;;26.70;12.83;;;3.80;99.90;;;;;;8474080;27;20201;-67
2022/01/14 16:43:37;;;;;;;21.27;12.43;;;3.80;99.90;;;;;;8468496;27;20190;-65
2022/01/14 16:47:40;;;;;;;24.83;14.13;;;3.80;99.90;;;;;;8489927;27;20175;-63
2022/01/14 16:51:41;;;;;;;27.67;14.83;;;3.90;99.90;;;;;;8486662;27;20188;-65
2022/01/14 16:55:44;;;;;;;28.27;15.27;;;3.90;99.90;;;;;;8493285;27;20224;-65
2022/01/14 16:59:45;;;;;;;23.90;13.27;;;3.90;99.90;;;;;;8474683;27;20192;-63
2022/01/14 17:03:47;;;;;;;28.07;13.93;;;4.00;99.90;;;;;;8467928;27;20175;-64
2022/01/14 17:07:48;;;;;;;31.57;14.37;;;4.00;99.90;;;;;;8467226;27;20267;-65
2022/01/14 17:11:50;;;;;;;28.50;12.70;;;4.00;99.90;;;;;;8473536;27;20202;-65
2022/01/14 17:15:50;;;;;;;21.93;14.13;;;4.10;99.90;;;;;;8473531;27;20213;-64
2022/01/14 17:19:51;;;;;;;29.47;15.83;;;4.10;99.90;;;;;;8492175;27;20241;-64
2022/01/14 17:23:54;;;;;;;27.40;15.63;;;4.10;99.90;;;;;;8490542;27;20198;-64
2022/01/14 17:27:55;;;;;;;27.97;15.67;;;4.10;99.90;;;;;;8459077;27;20192;-65
2022/01/14 17:31:56;;;;;;;26.13;14.83;;;4.20;99.90;;;;;;8480790;27;20187;-65
2022/01/14 17:35:57;;;;;;;28.53;16.10;;;4.20;99.90;;;;;;8456325;28;20213;-65
2022/01/14 17:39:58;;;;;;;28.60;14.43;;;4.20;99.90;;;;;;8485701;27;20195;-65
2022/01/14 17:43:59;;;;;;;26.70;14.47;;;4.30;99.90;;;;;;8490850;27;20179;-64
2022/01/14 17:48:00;;;;;;;25.23;14.57;;;4.30;99.90;;;;;;8490178;27;20191;-67
2022/01/14 17:52:01;;;;;;;25.83;13.77;;;4.30;99.90;;;;;;8485915;27;20222;-64
2022/01/14 17:56:02;;;;;;;27.03;13.43;;;4.20;99.90;;;;;;8468843;27;20204;-64
2022/01/14 18:00:06;;;;;;;19.73;11.97;;;4.20;99.90;;;;;;8469737;27;20237;-65
2022/01/14 18:04:06;;;;;;;20.37;12.37;;;4.10;99.90;;;;;;8473248;27;20183;-67
2022/01/14 18:08:07;;;;;;;24.37;12.77;;;4.10;99.90;;;;;;8485115;27;20190;-65
2022/01/14 18:12:19;;;;;;;24.93;13.33;;;4.20;99.90;;;;;;8480821;27;20254;-64
2022/01/14 18:16:19;;;;;;;27.23;12.13;;;4.20;99.90;;;;;;8472259;27;20209;-64
2022/01/14 18:20:23;;;;;;;24.37;13.33;;;4.30;99.90;;;;;;8484015;27;20218;-65
2022/01/14 18:24:24;;;;;;;26.40;14.37;;;4.30;99.90;;;;;;8476888;27;20188;-64
2022/01/14 18:28:24;;;;;;;26.83;14.50;;;4.30;99.90;;;;;;8475246;27;20183;-65
2022/01/14 18:32:25;;;;;;;26.30;15.37;;;4.30;99.90;;;;;;8473683;27;20186;-65
2022/01/14 18:36:26;;;;;;;26.73;15.67;;;4.40;99.90;;;;;;8477477;27;20195;-66
2022/01/14 18:40:31;;;;;;;26.93;14.90;;;4.40;99.90;;;;;;8473228;27;20212;-65
2022/01/14 18:44:34;;;;;;;29.60;15.53;;;4.40;99.90;;;;;;8475134;27;20356;-64
2022/01/14 18:48:35;;;;;;;30.03;14.73;;;4.50;99.90;;;;;;8473268;27;20248;-65
2022/01/14 18:52:37;;;;;;;28.50;15.00;;;4.50;99.90;;;;;;8470019;27;20278;-65
2022/01/14 18:56:38;;;;;;;27.67;14.60;;;4.50;99.90;;;;;;8474311;27;20209;-65
2022/01/14 19:00:39;;;;;;;21.07;12.33;;;4.50;99.90;;;;;;8474000;27;20207;-66
2022/01/14 19:04:40;;;;;;;23.80;13.10;;;4.50;99.90;;;;;;8468633;27;20186;-66
2022/01/14 19:08:40;;;;;;;27.03;14.30;;;4.50;99.90;;;;;;8483541;27;20298;-64
2022/01/14 19:12:43;;;;;;;22.77;13.30;;;4.60;99.90;;;;;;8488029;27;20186;-65
2022/01/14 19:16:46;;;;;;;20.03;12.73;;;4.50;99.90;;;;;;8484816;27;20199;-67
2022/01/14 19:20:47;;;;;;;21.57;11.50;;;4.50;99.90;;;;;;8486442;27;20199;-65
2022/01/14 19:24:48;;;;;;;20.10;12.30;;;4.50;99.90;;;;;;8487708;27;20187;-65
2022/01/14 19:28:50;;;;;;;19.13;11.20;;;4.50;99.90;;;;;;8473764;27;20183;-67
2022/01/14 19:32:52;;;;;;;17.77;11.07;;;4.50;99.90;;;;;;8464576;27;20435;-66
2022/01/14 19:36:53;;;;;;;20.13;11.67;;;4.50;99.90;;;;;;8482322;28;20175;-70
2022/01/14 19:40:54;;;;;;;15.60;10.37;;;4.40;99.90;;;;;;8479663;28;20625;-67
2022/01/14 19:44:56;;;;;;;19.77;11.53;;;4.40;99.90;;;;;;8452759;28;20187;-66
2022/01/14 19:48:57;;;;;;;17.83;11.13;;;4.40;99.90;;;;;;8466472;28;20273;-64
2022/01/14 19:52:58;;;;;;;18.63;11.47;;;4.40;99.90;;;;;;8471509;28;20187;-65
2022/01/14 19:56:59;;;;;;;19.30;11.77;;;4.40;99.90;;;;;;8473685;27;20196;-65
2022/01/14 20:01:03;;;;;;;23.20;11.93;;;4.40;99.90;;;;;;8473610;27;20211;-66
2022/01/14 20:05:04;;;;;;;17.30;10.87;;;4.40;99.90;;;;;;8481127;27;20183;-65
2022/01/14 20:09:07;;;;;;;16.00;10.13;;;4.50;99.90;;;;;;8478088;27;20340;-67
2022/01/14 20:13:08;;;;;;;19.27;9.93;;;4.50;99.90;;;;;;8474178;27;20188;-66
2022/01/14 20:17:12;;;;;;;22.37;10.40;;;4.60;99.90;;;;;;8474288;27;20238;-65
2022/01/14 20:21:14;;;;;;;19.97;10.27;;;4.70;99.90;;;;;;8489761;27;20211;-65
2022/01/14 20:25:17;;;;;;;19.00;10.53;;;4.70;99.90;;;;;;8476551;27;20203;-65
2022/01/14 20:29:18;;;;;;;20.10;11.37;;;4.70;99.90;;;;;;8477617;27;20201;-66
2022/01/14 20:33:19;;;;;;;21.30;13.07;;;4.70;99.90;;;;;;8479742;27;20298;-66
2022/01/14 20:37:21;;;;;;;13.90;7.00;;;4.60;99.90;;;;;;8474627;27;20187;-66
2022/01/14 20:41:26;;;;;;;10.87;5.60;;;4.50;99.90;;;;;;8473473;27;20221;-67
2022/01/14 20:45:28;;;;;;;12.43;5.37;;;4.30;99.90;;;;;;8471883;27;20195;-66
2022/01/14 20:49:31;;;;;;;10.33;5.47;;;4.20;99.90;;;;;;8490559;27;20443;-67
2022/01/14 20:53:32;;;;;;;19.57;7.17;;;4.10;99.90;;;;;;8486536;27;20225;-67
2022/01/14 20:57:33;;;;;;;14.70;5.87;;;4.00;99.90;;;;;;8483039;27;20199;-67
2022/01/14 21:01:35;;;;;;;9.67;4.63;;;4.00;99.90;;;;;;8477994;27;20222;-66
2022/01/14 21:05:37;;;;;;;19.47;5.07;;;4.00;99.90;;;;;;8483026;27;20557;-64
2022/01/14 21:09:39;;;;;;;10.37;4.60;;;3.90;99.90;;;;;;8480409;27;20210;-65
2022/01/14 21:13:40;;;;;;;17.33;5.33;;;3.80;99.90;;;;;;8442602;28;20207;-66